Time;durP1;ratioP1;P1;durP2;ratioP2;P2;SDS_P1;SDS_P2;PMS_P1;PMS_P2;Temp;Humidity;BMP_temperature;BMP_pressure;BME280_temperature;BME280_humidity;BME280_pressure;Samples;Min_cycle;Max_cycle;Signal;HPM_P1;HPM_P2
2023/04/09 00:00:26;;;;;;;2.97;2.78;;;;;;;3.68;87.38;98276.09;5062076;28;20048;-72
2023/04/09 00:02:54;;;;;;;2.35;2.25;;;;;;;3.70;87.47;98278.63;5068219;28;20381;-72
2023/04/09 00:05:23;;;;;;;2.95;2.75;;;;;;;3.80;87.39;98276.84;5064374;28;20072;-72
2023/04/09 00:07:51;;;;;;;2.60;2.42;;;;;;;3.89;86.97;98278.66;5061283;28;20106;-72
2023/04/09 00:10:18;;;;;;;2.53;2.33;;;;;;;3.95;86.78;98270.19;5067114;28;20053;-72
2023/04/09 00:12:46;;;;;;;2.53;2.42;;;;;;;4.00;86.52;98273.25;5069637;28;20098;-72
2023/04/09 00:15:13;;;;;;;2.38;2.28;;;;;;;4.03;86.51;98266.88;5067447;28;20716;-72
2023/04/09 00:17:56;;;;;;;2.83;2.63;;;;;;;4.05;86.22;98276.31;5056767;28;20056;-72
2023/04/09 00:20:25;;;;;;;2.50;2.40;;;;;;;4.02;86.00;98275.78;5067886;28;20045;-72
2023/04/09 00:22:55;;;;;;;2.83;2.63;;;;;;;4.02;85.92;98268.69;5064232;28;20112;-72
2023/04/09 00:25:22;;;;;;;2.85;2.65;;;;;;;3.92;86.45;98278.41;5050509;28;20048;-72
2023/04/09 00:27:50;;;;;;;2.58;2.40;;;;;;;3.86;86.54;98276.28;5062295;28;20102;-72
2023/04/09 00:30:17;;;;;;;4.28;2.72;;;;;;;3.83;87.13;98270.47;5051781;28;20086;-72
2023/04/09 00:32:45;;;;;;;2.30;2.20;;;;;;;3.83;86.95;98270.47;5046044;28;20041;-72
2023/04/09 00:35:13;;;;;;;2.63;2.42;;;;;;;3.72;87.90;98275.84;5047473;28;20075;-72
2023/04/09 00:37:42;;;;;;;2.85;2.65;;;;;;;3.76;87.83;98274.59;5066106;28;20048;-72
2023/04/09 00:40:10;;;;;;;2.85;2.65;;;;;;;3.78;88.01;98272.66;5048042;28;20053;-72
2023/04/09 00:42:37;;;;;;;3.00;2.80;;;;;;;3.79;88.17;98274.31;5050336;28;20499;-72
2023/04/09 00:45:06;;;;;;;2.63;2.47;;;;;;;3.74;88.52;98282.63;5065535;28;20036;-72
2023/04/09 00:47:34;;;;;;;2.97;2.78;;;;;;;3.82;88.19;98281.97;5051112;28;20135;-72
2023/04/09 00:50:03;;;;;;;3.13;2.92;;;;;;;3.84;88.97;98293.25;5038180;28;20511;-72
2023/04/09 00:52:31;;;;;;;3.38;3.17;;;;;;;3.87;88.64;98291.16;5063263;28;20094;-72
2023/04/09 00:55:01;;;;;;;3.03;2.83;;;;;;;3.90;88.32;98293.53;5053532;28;20041;-72
2023/04/09 00:57:28;;;;;;;3.00;2.80;;;;;;;3.89;88.69;98297.13;5060720;28;20040;-72
2023/04/09 00:59:56;;;;;;;2.83;2.63;;;;;;;3.92;88.32;98306.59;5046315;28;20044;-72
2023/04/09 01:02:23;;;;;;;2.90;2.70;;;;;;;3.91;88.35;98304.94;5046885;28;20094;-72
2023/04/09 01:04:51;;;;;;;2.97;2.78;;;;;;;3.93;88.53;98308.28;5064683;28;20093;-72
2023/04/09 01:07:24;;;;;;;2.85;2.65;;;;;;;3.94;89.42;98302.03;5048934;28;20037;-72
2023/04/09 01:09:57;;;;;;;3.15;2.95;;;;;;;4.01;89.22;98301.34;5032725;28;20048;-72
2023/04/09 01:12:32;;;;;;;2.95;2.75;;;;;;;4.03;89.66;98307.34;5049996;28;20049;-72
2023/04/09 01:15:05;;;;;;;3.28;2.95;;;;;;;4.06;90.14;98304.41;5072910;22;20052;-75
2023/04/09 01:17:35;;;;;;;3.47;3.17;;;;;;;4.06;90.62;98312.31;5054567;28;20131;-77
2023/04/09 01:20:06;;;;;;;3.50;3.30;;;;;;;4.13;90.86;98306.50;5058567;28;20040;-76
2023/04/09 01:22:42;;;;;;;3.45;3.25;;;;;;;4.38;99.02;98298.03;5038261;28;20053;-76
2023/04/09 01:25:19;;;;;;;3.42;3.15;;;;;;;4.25;93.02;98303.63;5058642;28;20053;-75
2023/04/09 01:27:55;;;;;;;3.00;2.80;;;;;;;4.28;91.65;98302.47;5017000;28;20053;-75
2023/04/09 01:30:25;;;;;;;3.60;3.30;;;;;;;4.26;93.75;98301.78;5034837;28;20389;-80
2023/04/09 01:32:53;;;;;;;2.97;2.78;;;;;;;4.24;91.74;98307.22;5013704;28;20492;-75
2023/04/09 01:35:21;;;;;;;3.03;2.83;;;;;;;4.27;91.57;98290.25;5039444;28;20128;-75
2023/04/09 01:37:49;;;;;;;3.03;2.83;;;;;;;4.29;91.42;98299.69;5018135;28;20099;-78
2023/04/09 01:40:17;;;;;;;2.72;2.58;;;;;;;4.24;91.89;98299.31;5053511;28;20508;-75
2023/04/09 01:42:45;;;;;;;2.80;2.60;;;;;;;4.32;92.14;98295.97;5026093;28;20052;-77
2023/04/09 01:45:14;;;;;;;2.75;2.55;;;;;;;4.39;92.02;98302.34;5028106;28;20462;-77
2023/04/09 01:47:43;;;;;;;3.00;2.80;;;;;;;4.35;91.74;98304.47;5022932;28;20055;-75
2023/04/09 01:50:11;;;;;;;2.70;2.53;;;;;;;4.46;95.41;98306.13;5035838;28;20063;-75
2023/04/09 01:52:39;;;;;;;3.10;2.75;;;;;;;4.43;92.34;98295.84;5039352;28;20045;-76
2023/04/09 01:55:07;;;;;;;2.88;2.67;;;;;;;4.42;91.58;98302.91;5038967;28;20033;-77
2023/04/09 01:57:35;;;;;;;2.60;2.47;;;;;;;4.57;96.04;98305.16;5023261;28;20042;-75
2023/04/09 02:00:03;;;;;;;2.97;2.78;;;;;;;4.73;93.95;98302.78;5025258;28;20523;-77
2023/04/09 02:02:46;;;;;;;2.00;1.90;;;;;;;4.55;92.28;98292.09;5041385;28;20049;-77
2023/04/09 02:05:15;;;;;;;;;;;;;;;4.92;97.89;98305.41;5047455;28;20037;-76
2023/04/09 02:07:45;;;;;;;2.22;2.13;;;;;;;4.83;91.92;98310.69;5049950;28;19967;-77
2023/04/09 02:10:16;;;;;;;2.05;1.95;;;;;;;4.79;91.22;98315.41;5024024;28;20037;-76
2023/04/09 02:12:49;;;;;;;2.17;2.08;;;;;;;4.66;90.80;98323.66;5037895;28;20458;-77
2023/04/09 02:15:16;;;;;;;2.38;2.20;;;;;;;4.61;90.83;98320.59;5027102;28;20052;-76
2023/04/09 02:17:45;;;;;;;2.35;2.25;;;;;;;4.49;93.96;98321.69;5040544;28;20041;-76
2023/04/09 02:20:16;;;;;;;2.35;2.25;;;;;;;4.51;92.59;98322.41;5043628;28;20056;-77
2023/04/09 02:22:44;;;;;;;2.40;2.30;;;;;;;4.92;94.19;98321.25;5034251;28;20045;-77
2023/04/09 02:25:11;;;;;;;2.25;2.15;;;;;;;4.67;91.14;98320.00;5026030;28;20041;-77
2023/04/09 02:27:39;;;;;;;2.42;2.33;;;;;;;4.57;91.27;98321.81;5027206;28;20072;-75
2023/04/09 02:30:08;;;;;;;2.20;2.10;;;;;;;4.50;92.96;98320.72;5028511;28;20053;-76
2023/04/09 02:32:36;;;;;;;2.10;2.00;;;;;;;4.71;95.43;98316.13;5044679;28;20060;-77
2023/04/09 02:35:06;;;;;;;2.42;2.28;;;;;;;4.71;94.00;98317.94;5030391;28;20084;-77
2023/04/09 02:37:33;;;;;;;2.15;2.05;;;;;;;4.71;91.13;98318.78;5038535;28;20136;-75
2023/04/09 02:40:01;;;;;;;2.00;1.90;;;;;;;4.94;95.81;98313.19;5023016;28;20114;-76
2023/04/09 02:42:28;;;;;;;2.00;1.90;;;;;;;5.14;91.31;98317.47;5048275;28;20517;-76
2023/04/09 02:44:56;;;;;;;2.05;1.95;;;;;;;5.23;91.48;98319.25;5045604;28;20045;-77
2023/04/09 02:47:25;;;;;;;2.03;1.92;;;;;;;5.08;92.64;98320.69;5027248;28;20038;-77
2023/04/09 02:49:53;;;;;;;2.33;2.22;;;;;;;5.06;90.42;98314.72;5047925;28;20048;-76
2023/04/09 02:52:23;;;;;;;2.30;2.20;;;;;;;4.94;92.66;98313.19;5044404;28;20045;-77
2023/04/09 02:54:52;;;;;;;2.72;2.63;;;;;;;4.99;92.36;98317.06;5023831;28;20164;-76
2023/04/09 02:57:19;;;;;;;2.00;1.90;;;;;;;4.97;88.45;98315.56;5044700;28;20041;-76
2023/04/09 02:59:47;;;;;;;2.10;2.00;;;;;;;4.84;88.59;98307.91;5019222;28;20099;-76
2023/04/09 03:02:14;;;;;;;2.38;2.10;;;;;;;4.46;89.91;98306.13;5023274;28;20045;-76
2023/04/09 03:04:42;;;;;;;2.17;2.08;;;;;;;4.03;92.01;98298.56;5027033;28;20184;-75
2023/04/09 03:07:10;;;;;;;2.15;2.05;;;;;;;4.05;92.46;98302.72;5027492;28;20415;-76
2023/04/09 03:09:39;;;;;;;2.00;1.90;;;;;;;4.40;95.33;98301.38;5043589;28;20037;-75
2023/04/09 03:12:06;;;;;;;2.33;2.22;;;;;;;4.30;91.48;98303.19;5031352;28;20049;-75
2023/04/09 03:14:34;;;;;;;2.10;2.00;;;;;;;4.18;91.57;98296.34;5025357;28;20467;-75
2023/04/09 03:17:02;;;;;;;1.95;1.85;;;;;;;4.06;91.81;98293.00;5043833;28;20460;-75
2023/04/09 03:19:30;;;;;;;2.20;2.10;;;;;;;3.83;92.14;98302.13;5027037;28;20044;-75
2023/04/09 03:21:58;;;;;;;2.33;2.22;;;;;;;3.99;91.38;98300.63;5039639;28;20052;-75
2023/04/09 03:24:27;;;;;;;2.00;1.90;;;;;;;3.89;94.43;98305.06;5028833;28;20111;-75
2023/04/09 03:27:01;;;;;;;;;;;;;;;4.14;91.79;98301.09;5025499;28;20471;-75
2023/04/09 03:29:30;;;;;;;1.98;1.88;;;;;;;4.33;96.46;98305.56;5031817;28;19951;-77
2023/04/09 03:31:59;;;;;;;2.00;1.90;;;;;;;4.53;90.81;98301.94;5026712;28;20067;-77
2023/04/09 03:34:26;;;;;;;1.77;1.67;;;;;;;4.27;89.20;98290.25;5047802;28;20049;-75
2023/04/09 03:36:56;;;;;;;2.10;2.00;;;;;;;3.89;92.67;98293.66;5023832;28;20144;-77
2023/04/09 03:39:29;;;;;;;1.85;1.75;;;;;;;4.03;95.27;98294.13;5024116;28;20045;-77
2023/04/09 03:41:57;;;;;;;1.85;1.75;;;;;;;4.96;94.04;98304.16;5024086;28;20493;-77
2023/04/09 03:44:30;;;;;;;2.00;1.90;;;;;;;4.69;88.79;98301.38;5024445;28;20459;-77
2023/04/09 03:47:14;;;;;;;1.90;1.80;;;;;;;4.48;89.26;98300.69;5036042;28;20063;-75
2023/04/09 03:49:42;;;;;;;1.85;1.75;;;;;;;4.56;89.21;98292.91;5026167;28;20045;-77
2023/04/09 03:52:23;;;;;;;1.83;1.73;;;;;;;4.18;89.70;98296.34;5024688;28;20057;-74
2023/04/09 03:54:58;;;;;;;2.03;1.92;;;;;;;4.42;95.63;98295.00;5021115;28;20052;-76
2023/04/09 03:57:27;;;;;;;1.83;1.73;;;;;;;4.74;91.17;98296.50;5022555;28;20061;-77
2023/04/09 03:59:57;;;;;;;1.88;1.77;;;;;;;5.13;90.48;98300.75;5026991;28;20048;-76
2023/04/09 04:02:29;;;;;;;1.80;1.70;;;;;;;5.00;87.74;98300.22;5025230;28;20033;-77
2023/04/09 04:05:01;;;;;;;1.85;1.75;;;;;;;4.72;87.37;98301.94;5026829;28;20045;-77
2023/04/09 04:07:34;;;;;;;;;;;;;;;4.47;88.55;98297.19;5026594;28;20045;-75
2023/04/09 04:10:09;;;;;;;1.50;1.40;;;;;;;4.79;91.73;98308.31;5059901;28;19960;-75
2023/04/09 04:12:38;;;;;;;2.03;1.92;;;;;;;4.91;88.70;98308.19;5022325;28;20045;-75
2023/04/09 04:15:18;;;;;;;1.88;1.77;;;;;;;4.35;89.09;98309.75;5025481;28;20139;-75
2023/04/09 04:17:51;;;;;;;1.73;1.63;;;;;;;4.61;91.43;98307.38;5026031;28;20132;-75
2023/04/09 04:20:35;;;;;;;2.58;2.47;;;;;;;4.27;88.51;98306.94;5028552;28;20744;-75
2023/04/09 04:23:07;;;;;;;1.92;1.83;;;;;;;4.04;89.32;98306.38;5028032;28;20049;-76
2023/04/09 04:25:41;;;;;;;2.00;1.90;;;;;;;3.85;89.99;98311.56;5024471;28;20053;-76
2023/04/09 04:28:12;;;;;;;2.10;2.00;;;;;;;3.88;89.35;98311.31;5026346;28;20045;-76
2023/04/09 04:30:43;;;;;;;1.83;1.73;;;;;;;3.54;90.98;98305.50;5024935;28;20073;-76
2023/04/09 04:33:11;;;;;;;2.00;1.90;;;;;;;3.42;91.75;98318.94;5027197;28;20479;-76
2023/04/09 04:35:44;;;;;;;2.00;1.90;;;;;;;3.35;91.42;98317.78;5025050;28;20140;-75
2023/04/09 04:38:28;;;;;;;2.15;2.05;;;;;;;3.32;91.50;98326.81;5023000;28;20100;-76
2023/04/09 04:40:58;;;;;;;1.98;1.88;;;;;;;3.21;92.56;98327.72;5023038;28;20527;-75
2023/04/09 04:43:26;;;;;;;2.33;2.22;;;;;;;3.25;92.50;98326.47;5017229;28;20132;-76
2023/04/09 04:46:00;;;;;;;2.08;1.98;;;;;;;3.14;93.00;98326.53;5025390;28;20458;-76
2023/04/09 04:48:30;;;;;;;2.85;2.42;;;;;;;3.31;92.58;98328.59;5023800;28;20401;-76
2023/04/09 04:50:59;;;;;;;2.40;2.20;;;;;;;3.12;93.33;98331.09;5018964;28;20052;-76
2023/04/09 04:53:34;;;;;;;2.03;1.92;;;;;;;3.11;93.87;98333.91;5023956;28;20037;-76
2023/04/09 04:56:12;;;;;;;1.98;1.88;;;;;;;3.09;94.33;98339.31;5059336;28;20053;-75
2023/04/09 04:58:47;;;;;;;1.80;1.70;;;;;;;3.19;94.38;98340.19;5022082;28;20049;-76
2023/04/09 05:01:19;;;;;;;2.00;1.90;;;;;;;3.27;93.83;98342.16;5028267;28;20094;-77
2023/04/09 05:03:47;;;;;;;1.98;1.88;;;;;;;3.28;93.77;98344.69;5020552;28;20065;-76
2023/04/09 05:06:32;;;;;;;2.17;2.08;;;;;;;3.32;93.27;98351.34;5029835;28;20036;-75
2023/04/09 05:09:03;;;;;;;1.70;1.60;;;;;;;3.25;92.97;98355.47;5022030;28;20046;-76
2023/04/09 05:11:39;;;;;;;1.90;1.80;;;;;;;3.14;93.24;98366.09;5056981;28;20107;-76
2023/04/09 05:14:13;;;;;;;2.00;1.90;;;;;;;3.13;93.06;98359.16;5024553;28;20069;-76
2023/04/09 05:16:42;;;;;;;1.90;1.80;;;;;;;3.15;93.67;98357.22;5041556;28;20120;-76
2023/04/09 05:19:10;;;;;;;2.08;1.98;;;;;;;3.22;93.24;98360.19;5020811;28;20076;-76
2023/04/09 05:21:38;;;;;;;1.92;1.83;;;;;;;3.20;93.23;98359.50;5023630;28;20045;-75
2023/04/09 05:24:06;;;;;;;2.00;1.90;;;;;;;3.30;93.04;98366.50;5025061;28;20067;-76
2023/04/09 05:26:34;;;;;;;2.10;2.00;;;;;;;3.34;92.78;98359.13;5023277;28;20063;-76
2023/04/09 05:29:02;;;;;;;2.20;2.10;;;;;;;3.30;92.57;98355.94;5025017;28;20456;-75
2023/04/09 05:31:30;;;;;;;2.17;1.98;;;;;;;3.33;92.55;98363.56;5024239;28;20045;-76
2023/04/09 05:34:04;;;;;;;2.00;1.90;;;;;;;3.20;94.00;98360.34;5024913;28;20067;-75
2023/04/09 05:36:44;;;;;;;2.28;2.17;;;;;;;3.28;93.63;98364.94;5039515;28;20120;-76
2023/04/09 05:39:12;;;;;;;3.33;3.05;;;;;;;3.30;93.57;98366.50;5037187;28;20419;-74
2023/04/09 05:41:41;;;;;;;2.10;2.00;;;;;;;3.24;93.41;98364.38;5024853;28;20041;-76
2023/04/09 05:44:17;;;;;;;2.20;2.10;;;;;;;3.26;93.84;98369.50;5045541;28;20095;-77
2023/04/09 05:46:45;;;;;;;2.47;2.38;;;;;;;3.25;93.53;98370.47;5021205;28;20132;-78
2023/04/09 05:49:17;;;;;;;2.38;2.28;;;;;;;3.33;92.97;98368.00;5028990;28;20049;-75
2023/04/09 05:51:49;;;;;;;2.83;2.42;;;;;;;3.32;92.92;98371.66;5021305;28;20061;-75
2023/04/09 05:54:23;;;;;;;2.25;2.15;;;;;;;3.29;93.52;98366.63;5021184;28;20049;-76
2023/04/09 05:56:51;;;;;;;3.10;2.90;;;;;;;3.49;92.62;98357.00;5015253;28;20401;-75
2023/04/09 05:59:19;;;;;;;2.65;2.45;;;;;;;3.49;92.15;98357.84;5022713;28;20412;-76
2023/04/09 06:01:46;;;;;;;2.33;2.22;;;;;;;3.34;92.99;98364.41;5025356;28;20053;-76
2023/04/09 06:04:14;;;;;;;2.58;2.38;;;;;;;3.28;93.12;98365.78;5037033;28;20123;-75
2023/04/09 06:06:43;;;;;;;2.90;2.70;;;;;;;3.25;93.69;98358.13;5032856;28;20055;-77
2023/04/09 06:09:11;;;;;;;2.42;2.33;;;;;;;3.27;93.63;98373.81;5025042;28;20048;-75
2023/04/09 06:11:38;;;;;;;2.13;2.03;;;;;;;3.29;93.34;98372.75;5027183;28;20165;-75
2023/04/09 06:14:06;;;;;;;2.40;2.30;;;;;;;3.24;93.36;98368.78;5028872;28;20103;-76
2023/04/09 06:16:35;;;;;;;2.28;2.17;;;;;;;3.12;93.63;98361.91;5024641;28;20072;-75
2023/04/09 06:19:02;;;;;;;3.38;3.17;;;;;;;3.18;93.72;98375.44;5040288;28;20520;-75
2023/04/09 06:21:30;;;;;;;2.33;2.22;;;;;;;3.29;93.63;98372.75;5044407;28;20427;-76
2023/04/09 06:23:59;;;;;;;2.80;2.60;;;;;;;3.32;92.88;98369.81;5045947;28;20103;-75
2023/04/09 06:26:26;;;;;;;1.92;1.83;;;;;;;3.36;92.61;98359.84;5037364;28;20053;-76
2023/04/09 06:28:54;;;;;;;2.25;2.15;;;;;;;3.41;92.56;98359.47;5024614;28;20049;-76
2023/04/09 06:31:21;;;;;;;2.35;2.25;;;;;;;3.37;92.51;98371.25;5042253;28;20076;-76
2023/04/09 06:33:49;;;;;;;2.35;2.25;;;;;;;3.30;92.98;98371.78;5017377;28;20385;-76
2023/04/09 06:36:18;;;;;;;2.08;1.98;;;;;;;3.24;92.64;98374.91;5021474;28;20123;-76
2023/04/09 06:38:45;;;;;;;2.72;2.53;;;;;;;3.18;93.16;98378.06;5034445;28;20170;-75
2023/04/09 06:41:14;;;;;;;2.50;2.30;;;;;;;3.16;93.36;98369.47;5044911;28;20037;-77
2023/04/09 06:43:41;;;;;;;2.13;2.03;;;;;;;3.10;93.55;98372.63;5041790;28;20504;-75
2023/04/09 06:46:09;;;;;;;2.03;1.92;;;;;;;3.13;93.39;98377.63;5044708;28;20052;-75
2023/04/09 06:48:37;;;;;;;2.17;2.08;;;;;;;3.17;93.37;98372.94;5045221;28;20044;-78
2023/04/09 06:51:06;;;;;;;2.17;2.08;;;;;;;3.36;92.15;98386.22;5046033;28;20091;-77
2023/04/09 06:53:34;;;;;;;2.40;2.30;;;;;;;3.31;92.13;98391.06;5044246;28;20071;-78
2023/04/09 06:56:02;;;;;;;2.10;2.00;;;;;;;3.30;92.79;98392.03;5045414;28;20136;-77
2023/04/09 06:58:30;;;;;;;2.22;2.13;;;;;;;3.28;92.29;98381.63;5027235;28;20049;-76
2023/04/09 07:00:59;;;;;;;2.30;2.20;;;;;;;3.17;92.70;98373.75;5041240;28;20578;-75
2023/04/09 07:03:27;;;;;;;2.30;2.20;;;;;;;3.38;91.53;98378.19;5046681;28;20114;-76
2023/04/09 07:05:55;;;;;;;2.00;1.90;;;;;;;3.07;91.73;98377.31;5037783;28;20051;-77
2023/04/09 07:08:23;;;;;;;2.38;2.28;;;;;;;2.94;92.64;98380.97;5045304;28;20047;-77
2023/04/09 07:10:50;;;;;;;2.20;2.10;;;;;;;2.85;93.30;98378.25;5038584;28;20049;-75
2023/04/09 07:13:18;;;;;;;2.20;2.10;;;;;;;3.07;93.40;98382.56;5072044;22;20504;-72
2023/04/09 07:15:47;;;;;;;2.13;2.03;;;;;;;2.89;93.80;98384.94;5061726;28;20123;-73
2023/04/09 07:18:14;;;;;;;2.25;2.15;;;;;;;3.08;93.37;98377.19;5046209;28;20048;-72
2023/04/09 07:20:42;;;;;;;2.08;1.98;;;;;;;3.41;92.36;98386.69;5064409;28;20111;-72
2023/04/09 07:23:10;;;;;;;2.15;2.05;;;;;;;3.42;90.55;98393.66;5065309;28;20036;-72
2023/04/09 07:25:38;;;;;;;2.88;2.78;;;;;;;3.10;92.25;98393.72;5045837;28;20539;-72
2023/04/09 07:28:05;;;;;;;2.20;2.10;;;;;;;3.26;91.94;98399.38;5066682;28;20056;-72
2023/04/09 07:30:33;;;;;;;2.22;2.13;;;;;;;3.37;91.39;98401.09;5063590;28;20049;-72
2023/04/09 07:33:02;;;;;;;2.10;2.00;;;;;;;3.48;91.01;98406.31;5070772;28;20071;-72
2023/04/09 07:35:30;;;;;;;2.20;2.10;;;;;;;3.46;91.04;98396.84;5065009;28;20084;-73
2023/04/09 07:37:58;;;;;;;2.13;2.03;;;;;;;3.49;91.35;98404.50;5069025;28;20051;-72
2023/04/09 07:40:26;;;;;;;2.13;1.92;;;;;;;3.61;90.80;98403.47;5066902;28;20102;-73
2023/04/09 07:42:54;;;;;;;1.85;1.75;;;;;;;3.60;91.03;98401.78;5067671;28;20044;-73
2023/04/09 07:45:22;;;;;;;2.47;2.33;;;;;;;3.63;90.52;98401.53;5066088;28;20408;-72
2023/04/09 07:47:49;;;;;;;1.98;1.88;;;;;;;3.60;90.45;98400.00;5052382;28;20094;-73
2023/04/09 07:50:22;;;;;;;1.88;1.77;;;;;;;3.71;89.90;98400.88;5066470;28;20048;-73
2023/04/09 07:52:50;;;;;;;2.03;1.92;;;;;;;3.70;90.06;98410.59;5052417;28;20433;-72
2023/04/09 07:55:19;;;;;;;1.90;1.80;;;;;;;3.72;89.37;98406.03;5062317;28;20079;-72
2023/04/09 07:57:47;;;;;;;2.28;2.17;;;;;;;3.84;89.23;98410.22;5064558;28;20052;-72
2023/04/09 08:00:15;;;;;;;1.90;1.80;;;;;;;3.92;88.95;98407.78;5064994;28;20572;-72
2023/04/09 08:02:43;;;;;;;2.65;2.55;;;;;;;4.00;88.28;98405.31;5063223;28;20174;-72
2023/04/09 08:05:11;;;;;;;1.73;1.63;;;;;;;4.05;88.19;98413.66;5064552;28;20048;-72
2023/04/09 08:07:40;;;;;;;1.90;1.80;;;;;;;4.16;88.07;98403.94;5064145;28;20037;-72
2023/04/09 08:10:13;;;;;;;2.10;2.00;;;;;;;3.97;88.08;98407.38;5046744;28;20052;-72
2023/04/09 08:12:41;;;;;;;1.80;1.70;;;;;;;4.21;88.65;98401.75;5062642;28;20049;-72
2023/04/09 08:15:09;;;;;;;1.70;1.60;;;;;;;4.45;87.35;98402.25;5064268;28;20074;-72
2023/04/09 08:17:37;;;;;;;2.10;2.00;;;;;;;4.67;86.20;98403.81;5061346;28;20052;-72
2023/04/09 08:20:07;;;;;;;1.80;1.70;;;;;;;4.63;85.73;98399.75;5044156;28;20052;-71
2023/04/09 08:22:34;;;;;;;2.03;1.92;;;;;;;4.77;85.24;98396.72;5066837;28;20044;-71
2023/04/09 08:25:03;;;;;;;1.75;1.65;;;;;;;4.74;85.04;98400.47;5060808;28;20049;-71
2023/04/09 08:27:32;;;;;;;1.90;1.80;;;;;;;4.63;85.44;98391.81;5053282;28;20040;-71
2023/04/09 08:29:59;;;;;;;1.80;1.70;;;;;;;4.79;85.25;98392.94;5064002;28;20059;-71
2023/04/09 08:32:27;;;;;;;1.60;1.50;;;;;;;4.90;84.55;98386.69;5068833;28;20101;-71
2023/04/09 08:34:54;;;;;;;1.50;1.40;;;;;;;4.69;85.07;98388.63;5060485;28;20135;-71
2023/04/09 08:37:22;;;;;;;1.77;1.67;;;;;;;4.95;85.13;98384.47;5061233;28;20125;-71
2023/04/09 08:39:50;;;;;;;2.35;2.25;;;;;;;5.13;84.04;98388.06;5037155;28;20285;-71
2023/04/09 08:42:20;;;;;;;1.88;1.77;;;;;;;5.20;84.08;98396.25;5060734;28;20443;-72
2023/04/09 08:44:48;;;;;;;1.52;1.42;;;;;;;5.47;83.84;98404.31;5061863;28;20044;-72
2023/04/09 08:47:16;;;;;;;1.95;1.85;;;;;;;5.76;83.64;98393.66;5061283;28;20048;-71
2023/04/09 08:49:43;;;;;;;1.80;1.70;;;;;;;6.03;82.34;98390.22;5068162;28;20101;-72
2023/04/09 08:52:11;;;;;;;1.60;1.50;;;;;;;6.08;80.77;98395.94;5060078;28;20048;-72
2023/04/09 08:54:38;;;;;;;1.60;1.50;;;;;;;5.93;81.04;98393.88;5062328;28;20052;-72
2023/04/09 08:57:06;;;;;;;1.80;1.70;;;;;;;6.12;80.96;98393.81;5063744;28;20051;-72
2023/04/09 08:59:35;;;;;;;1.70;1.60;;;;;;;6.39;80.14;98393.81;5061528;28;20053;-72
2023/04/09 09:02:07;;;;;;;1.40;1.30;;;;;;;6.66;79.83;98390.28;5065343;28;20581;-72
2023/04/09 09:04:44;;;;;;;1.63;1.52;;;;;;;6.83;77.50;98385.97;5061205;28;20041;-71
2023/04/09 09:07:11;;;;;;;1.55;1.45;;;;;;;6.93;77.46;98384.91;5064623;28;20098;-72
2023/04/09 09:09:51;;;;;;;1.50;1.40;;;;;;;6.98;76.32;98382.63;5062090;28;20067;-72
2023/04/09 09:12:32;;;;;;;1.02;1.02;;;;;;;6.89;76.77;98386.19;5062397;28;20059;-71
2023/04/09 09:15:01;;;;;;;1.60;1.50;;;;;;;7.17;77.78;98378.13;5053871;28;20044;-71
2023/04/09 09:17:28;;;;;;;1.27;1.23;;;;;;;7.41;75.87;98382.81;5062014;28;20052;-72
2023/04/09 09:19:56;;;;;;;1.60;1.50;;;;;;;7.54;76.37;98378.75;5061690;28;20063;-71
2023/04/09 09:22:24;;;;;;;1.30;1.30;;;;;;;7.71;74.68;98377.84;5066078;28;20066;-72
2023/04/09 09:24:52;;;;;;;1.40;1.30;;;;;;;7.79;72.96;98371.75;5059389;28;20095;-72
2023/04/09 09:27:35;;;;;;;1.60;1.50;;;;;;;7.91;73.09;98364.34;5066520;28;20052;-72
2023/04/09 09:30:05;;;;;;;1.50;1.40;;;;;;;7.96;73.09;98362.88;5050970;28;20108;-72
2023/04/09 09:32:33;;;;;;;1.45;1.35;;;;;;;8.17;72.77;98365.13;5067732;28;20098;-71
2023/04/09 09:35:03;;;;;;;1.58;1.48;;;;;;;8.29;72.50;98361.19;5041612;28;20045;-72
2023/04/09 09:37:31;;;;;;;1.20;1.20;;;;;;;8.42;72.69;98368.72;5042488;28;20088;-71
2023/04/09 09:39:59;;;;;;;1.15;1.15;;;;;;;8.58;70.22;98370.63;5060319;28;20036;-71
2023/04/09 09:42:27;;;;;;;1.33;1.30;;;;;;;8.56;70.54;98369.94;5059879;28;20045;-71
2023/04/09 09:44:55;;;;;;;1.15;1.15;;;;;;;8.63;70.16;98362.97;5066386;28;20045;-72
2023/04/09 09:47:26;;;;;;;1.10;1.10;;;;;;;8.58;69.45;98360.81;5059754;28;20048;-72
2023/04/09 09:49:54;;;;;;;1.20;1.20;;;;;;;8.64;69.36;98356.66;5052507;28;20120;-72
2023/04/09 09:52:25;;;;;;;1.50;1.20;;;;;;;8.69;69.25;98354.34;5045516;28;20048;-71
2023/04/09 09:54:54;;;;;;;1.60;1.50;;;;;;;8.96;68.04;98350.53;5048084;28;20036;-71
2023/04/09 09:57:23;;;;;;;1.17;0.95;;;;;;;9.10;64.85;98350.72;5060744;28;20045;-71
2023/04/09 09:59:54;;;;;;;1.02;1.02;;;;;;;9.27;66.66;98346.19;5044846;28;20094;-71
2023/04/09 10:02:25;;;;;;;1.00;1.00;;;;;;;9.42;65.84;98347.19;5041211;28;20499;-71
2023/04/09 10:04:53;;;;;;;1.10;1.10;;;;;;;9.37;64.21;98346.84;5049741;28;20045;-71
2023/04/09 10:07:22;;;;;;;0.80;0.80;;;;;;;9.51;65.15;98348.84;5059756;28;20049;-71
2023/04/09 10:09:52;;;;;;;1.00;1.00;;;;;;;9.67;64.39;98341.81;5049695;28;20036;-71
2023/04/09 10:12:22;;;;;;;0.95;0.95;;;;;;;9.85;63.56;98343.28;5061073;28;20048;-71
2023/04/09 10:14:51;;;;;;;0.98;0.98;;;;;;;10.10;63.53;98340.50;5050144;28;20036;-71
2023/04/09 10:17:19;;;;;;;1.08;1.08;;;;;;;10.17;63.52;98336.16;5061790;28;20094;-71
2023/04/09 10:19:55;;;;;;;0.63;0.63;;;;;;;10.29;61.25;98334.78;5061903;28;20415;-71
2023/04/09 10:22:25;;;;;;;1.48;1.38;;;;;;;10.48;62.72;98334.34;5065270;28;20435;-71
2023/04/09 10:24:54;;;;;;;0.90;0.90;;;;;;;10.52;62.33;98324.16;5048743;28;20044;-71
2023/04/09 10:27:22;;;;;;;1.10;1.10;;;;;;;10.64;62.03;98328.06;5065610;28;20049;-71
2023/04/09 10:29:50;;;;;;;0.85;0.85;;;;;;;10.46;61.33;98323.03;5054290;28;20044;-71
2023/04/09 10:32:20;;;;;;;0.90;0.90;;;;;;;10.27;61.70;98328.81;5058349;28;20120;-71
2023/04/09 10:34:50;;;;;;;1.00;1.00;;;;;;;10.56;60.80;98326.28;5059135;28;20048;-71
2023/04/09 10:37:21;;;;;;;1.10;1.10;;;;;;;10.74;61.40;98318.00;5058898;28;20045;-71
2023/04/09 10:39:50;;;;;;;0.88;0.88;;;;;;;10.87;60.71;98320.09;5060846;28;20037;-71
2023/04/09 10:42:19;;;;;;;0.70;0.70;;;;;;;11.09;59.99;98321.91;5054645;28;20045;-71
2023/04/09 10:44:46;;;;;;;0.80;0.80;;;;;;;11.33;58.93;98324.34;5058904;28;20091;-71
2023/04/09 10:47:31;;;;;;;0.75;0.75;;;;;;;11.62;59.16;98323.59;5062398;28;20565;-71
2023/04/09 10:50:14;;;;;;;0.80;0.80;;;;;;;11.86;57.15;98319.00;5051915;28;20040;-71
2023/04/09 10:52:43;;;;;;;0.60;0.60;;;;;;;11.77;54.69;98310.22;5061346;28;20044;-71
2023/04/09 10:55:29;;;;;;;0.93;0.93;;;;;;;12.06;56.12;98318.25;5060674;28;20071;-71
2023/04/09 10:57:57;;;;;;;0.70;0.70;;;;;;;12.26;56.42;98314.97;5055955;28;20049;-71
2023/04/09 11:00:25;;;;;;;0.82;0.82;;;;;;;12.39;54.92;98317.81;5065098;28;20044;-71
2023/04/09 11:03:17;;;;;;;1.00;0.90;;;;;;;12.05;54.60;98316.56;5059031;28;20098;-71
2023/04/09 11:05:49;;;;;;;0.80;0.80;;;;;;;12.32;54.87;98315.09;5055109;28;20543;-71
2023/04/09 11:08:16;;;;;;;0.80;0.80;;;;;;;12.21;56.40;98307.53;5060539;28;20103;-71
2023/04/09 11:10:46;;;;;;;1.15;1.15;;;;;;;12.26;55.78;98301.59;5041522;28;20536;-71
2023/04/09 11:13:18;;;;;;;0.70;0.70;;;;;;;12.59;54.67;98301.97;5067851;28;20056;-71
2023/04/09 11:15:46;;;;;;;0.82;0.82;;;;;;;12.72;53.49;98302.13;5061422;28;20049;-71
2023/04/09 11:18:14;;;;;;;0.75;0.75;;;;;;;12.60;53.21;98296.44;5060957;28;20045;-71
2023/04/09 11:20:42;;;;;;;0.80;0.80;;;;;;;12.78;53.74;98291.47;5061949;28;20045;-71
2023/04/09 11:23:12;;;;;;;0.70;0.70;;;;;;;13.11;53.95;98298.97;5061827;28;20045;-71
2023/04/09 11:25:40;;;;;;;0.65;0.65;;;;;;;13.01;52.12;98304.66;5061444;28;20049;-71
2023/04/09 11:28:08;;;;;;;0.65;0.65;;;;;;;12.97;53.14;98298.06;5061719;28;20512;-71
2023/04/09 11:30:36;;;;;;;0.70;0.70;;;;;;;12.92;53.03;98299.63;5055399;28;20098;-71
2023/04/09 11:33:04;;;;;;;0.75;0.75;;;;;;;12.76;52.70;98292.69;5061605;28;20128;-70
2023/04/09 11:35:34;;;;;;;0.90;0.90;;;;;;;12.76;54.05;98295.38;5061109;28;20045;-71
2023/04/09 11:38:06;;;;;;;0.75;0.75;;;;;;;12.58;52.42;98292.28;5059076;28;20123;-71
2023/04/09 11:40:35;;;;;;;0.80;0.80;;;;;;;12.30;52.76;98286.84;5061694;28;20060;-71
2023/04/09 11:43:02;;;;;;;0.75;0.75;;;;;;;12.45;52.96;98296.50;5059965;28;20045;-71
2023/04/09 11:45:31;;;;;;;0.80;0.80;;;;;;;12.49;53.78;98292.41;5058756;28;20045;-70
2023/04/09 11:47:59;;;;;;;0.80;0.80;;;;;;;12.68;54.11;98298.16;5060517;28;20115;-71
2023/04/09 11:50:27;;;;;;;0.90;0.90;;;;;;;12.77;53.27;98294.34;5061376;28;20603;-71
2023/04/09 11:52:54;;;;;;;0.70;0.70;;;;;;;12.56;53.24;98295.19;5060595;28;20045;-71